createdAt,value
2022-08-28T00:00:43.271Z,18.51
2022-08-28T00:03:13.250Z,18.48
2022-08-28T00:05:43.395Z,18.39
2022-08-28T00:08:13.764Z,18.41
2022-08-28T00:10:42.986Z,18.31
2022-08-28T00:13:19.113Z,18.38
2022-08-28T00:15:50.538Z,18.30
2022-08-28T00:18:20.067Z,18.21
2022-08-28T00:20:49.636Z,18.21
2022-08-28T00:23:19.826Z,18.23
2022-08-28T00:25:48.154Z,18.18
2022-08-28T00:28:24.393Z,18.15
2022-08-28T00:30:54.838Z,18.08
2022-08-28T00:33:27.794Z,18.08
2022-08-28T00:35:56.823Z,18.04
2022-08-28T00:38:27.680Z,17.88
2022-08-28T00:41:00.397Z,17.77
2022-08-28T00:43:41.911Z,17.87
2022-08-28T00:46:13.177Z,17.88
2022-08-28T00:48:41.784Z,17.92
2022-08-28T00:51:28.611Z,17.87
2022-08-28T00:54:01.358Z,17.87
2022-08-28T00:56:36.720Z,17.79
2022-08-28T00:59:12.463Z,17.85
2022-08-28T01:01:41.282Z,17.85
2022-08-28T01:04:10.393Z,17.81
2022-08-28T01:06:39.758Z,17.70
2022-08-28T01:09:08.628Z,17.60
2022-08-28T01:11:37.084Z,17.55
2022-08-28T01:14:08.788Z,17.50
2022-08-28T01:16:45.533Z,17.52
2022-08-28T01:19:20.116Z,17.53
2022-08-28T01:21:56.320Z,17.39
2022-08-28T01:24:28.543Z,17.52
2022-08-28T01:26:56.915Z,17.57
2022-08-28T01:29:25.620Z,17.32
2022-08-28T01:31:54.929Z,17.48
2022-08-28T01:34:23.291Z,17.51
2022-08-28T01:36:51.976Z,17.57
2022-08-28T01:39:25.563Z,17.57
2022-08-28T01:41:57.259Z,17.51
2022-08-28T01:44:28.019Z,17.48
2022-08-28T01:46:59.653Z,17.61
2022-08-28T01:49:29.663Z,17.67
2022-08-28T01:52:00.931Z,17.77
2022-08-28T01:54:32.974Z,17.88
2022-08-28T01:57:04.633Z,17.77
2022-08-28T01:59:33.469Z,17.89
2022-08-28T02:02:05.642Z,17.90
2022-08-28T02:04:34.548Z,17.85
2022-08-28T02:07:02.962Z,17.88
2022-08-28T02:09:32.144Z,17.86
2022-08-28T02:12:00.641Z,17.80
2022-08-28T02:14:30.796Z,17.82
2022-08-28T02:16:59.132Z,17.85
2022-08-28T02:19:27.402Z,17.83
2022-08-28T02:21:56.017Z,17.87
2022-08-28T02:24:24.707Z,17.91
2022-08-28T02:26:53.133Z,17.89
2022-08-28T02:29:21.312Z,17.89
2022-08-28T02:31:51.046Z,17.87
2022-08-28T02:34:21.717Z,17.96
2022-08-28T02:36:50.425Z,17.84
2022-08-28T02:39:19.077Z,17.91
2022-08-28T02:41:47.804Z,17.98
2022-08-28T02:44:18.820Z,17.98
2022-08-28T02:46:47.340Z,17.95
2022-08-28T02:49:18.278Z,17.90
2022-08-28T02:51:46.649Z,17.96
2022-08-28T02:54:15.023Z,17.80
2022-08-28T02:56:47.226Z,17.84
2022-08-28T02:59:15.860Z,17.86
2022-08-28T03:01:46.017Z,17.75
2022-08-28T03:04:14.753Z,17.79
2022-08-28T03:06:44.928Z,17.71
2022-08-28T03:09:14.709Z,17.67
2022-08-28T03:11:45.495Z,17.62
2022-08-28T03:14:13.939Z,17.67
2022-08-28T03:16:42.348Z,17.73
2022-08-28T03:19:10.820Z,17.61
2022-08-28T03:21:40.471Z,17.61
2022-08-28T03:24:10.391Z,17.58
2022-08-28T03:26:44.462Z,17.61
2022-08-28T03:29:13.153Z,17.56
2022-08-28T03:31:41.452Z,17.60
2022-08-28T03:34:10.684Z,17.50
2022-08-28T03:36:41.327Z,17.48
2022-08-28T03:39:11.188Z,17.51
2022-08-28T03:41:41.010Z,17.34
2022-08-28T03:44:09.818Z,17.43
2022-08-28T03:46:38.001Z,17.52
2022-08-28T03:49:07.207Z,17.49
2022-08-28T03:51:36.082Z,17.50
2022-08-28T03:54:08.486Z,17.54
2022-08-28T03:56:38.697Z,17.44
2022-08-28T03:59:07.077Z,17.30
2022-08-28T04:01:38.161Z,17.42
2022-08-28T04:04:08.079Z,17.29
2022-08-28T04:06:36.560Z,17.34
2022-08-28T04:09:06.643Z,17.35
2022-08-28T04:11:42.974Z,17.35
2022-08-28T04:14:11.694Z,17.44
2022-08-28T04:16:42.286Z,17.37
2022-08-28T04:19:10.644Z,17.51
2022-08-28T04:21:40.104Z,17.50
2022-08-28T04:24:11.164Z,17.54
2022-08-28T04:26:42.967Z,17.45
2022-08-28T04:29:11.919Z,17.31
2022-08-28T04:31:40.118Z,17.24
2022-08-28T04:34:11.281Z,17.32
2022-08-28T04:36:40.556Z,17.31
2022-08-28T04:39:11.504Z,17.30
2022-08-28T04:41:46.685Z,17.16
2022-08-28T04:44:14.879Z,17.13
2022-08-28T04:46:44.398Z,17.08
2022-08-28T04:49:17.764Z,17.12
2022-08-28T04:51:47.044Z,17.25
2022-08-28T04:54:15.932Z,17.30
2022-08-28T04:56:46.498Z,17.36
2022-08-28T04:59:16.645Z,17.28
2022-08-28T05:01:45.786Z,17.26
2022-08-28T05:04:14.625Z,17.36
2022-08-28T05:06:47.229Z,17.23
2022-08-28T05:09:17.334Z,17.38
2022-08-28T05:11:48.872Z,17.39
2022-08-28T05:14:21.936Z,17.30
2022-08-28T05:16:53.071Z,17.25
2022-08-28T05:19:25.031Z,17.38
2022-08-28T05:21:57.283Z,17.42
2022-08-28T05:24:26.736Z,17.41
2022-08-28T05:26:57.707Z,17.38
2022-08-28T05:29:26.475Z,17.52
2022-08-28T05:31:55.899Z,17.49
2022-08-28T05:34:25.216Z,17.46
2022-08-28T05:36:53.624Z,17.68
2022-08-28T05:39:22.327Z,17.57
2022-08-28T05:41:51.124Z,17.59
2022-08-28T05:44:21.315Z,17.62
2022-08-28T05:46:49.823Z,17.65
2022-08-28T05:49:20.945Z,17.68
2022-08-28T05:51:50.450Z,17.54
2022-08-28T05:54:22.119Z,17.68
2022-08-28T05:56:51.986Z,17.54
2022-08-28T05:59:21.743Z,17.62
2022-08-28T06:01:51.832Z,17.72
2022-08-28T06:04:23.964Z,17.81
2022-08-28T06:06:52.796Z,17.72
2022-08-28T06:09:28.816Z,17.80
2022-08-28T06:11:59.666Z,17.92
2022-08-28T06:14:31.666Z,17.78
2022-08-28T06:17:03.451Z,17.72
2022-08-28T06:19:37.210Z,17.86
2022-08-28T06:22:09.996Z,17.91
2022-08-28T06:24:38.745Z,17.98
2022-08-28T06:27:07.800Z,18.12
2022-08-28T06:29:37.761Z,18.08
2022-08-28T06:32:06.376Z,17.86
2022-08-28T06:34:35.598Z,17.87
2022-08-28T06:37:04.220Z,18.00
2022-08-28T06:39:32.864Z,18.02
2022-08-28T06:42:01.555Z,18.12
2022-08-28T06:44:34.412Z,18.19
2022-08-28T06:47:05.106Z,18.33
2022-08-28T06:49:33.611Z,18.48
2022-08-28T06:52:02.623Z,18.36
2022-08-28T06:54:31.400Z,18.59
2022-08-28T06:56:59.887Z,18.53
2022-08-28T06:59:28.704Z,18.70
2022-08-28T07:01:57.978Z,18.62
2022-08-28T07:04:28.057Z,18.71
2022-08-28T07:06:56.206Z,18.86
2022-08-28T07:09:25.914Z,18.89
2022-08-28T07:11:57.537Z,18.77
2022-08-28T07:14:26.935Z,18.91
2022-08-28T07:16:56.446Z,18.94
2022-08-28T07:19:25.975Z,18.91
2022-08-28T07:21:57.525Z,18.77
2022-08-28T07:24:25.943Z,19.01
2022-08-28T07:26:54.588Z,18.91
2022-08-28T07:29:24.090Z,19.10
2022-08-28T07:31:59.169Z,19.05
2022-08-28T07:34:27.924Z,19.20
2022-08-28T07:37:04.420Z,19.20
2022-08-28T07:39:32.745Z,19.30
2022-08-28T07:42:03.027Z,19.31
2022-08-28T07:44:48.340Z,19.45
2022-08-28T07:47:19.025Z,19.63
2022-08-28T07:49:47.218Z,19.58
2022-08-28T07:52:17.258Z,19.81
2022-08-28T07:54:47.618Z,19.78
2022-08-28T07:57:17.231Z,19.95
2022-08-28T07:59:45.593Z,20.01
2022-08-28T08:02:14.113Z,20.10
2022-08-28T08:04:43.196Z,20.14
2022-08-28T08:07:13.092Z,20.29
2022-08-28T08:09:45.036Z,20.25
2022-08-28T08:12:18.345Z,20.15
2022-08-28T08:14:49.776Z,20.21
2022-08-28T08:17:20.517Z,20.09
2022-08-28T08:19:48.791Z,20.21
2022-08-28T08:22:21.614Z,20.20
2022-08-28T08:24:51.651Z,20.02
2022-08-28T08:27:23.052Z,20.05
2022-08-28T08:29:51.591Z,20.44
2022-08-28T08:32:19.985Z,20.31
2022-08-28T08:34:48.213Z,20.42
2022-08-28T08:37:17.850Z,20.49
2022-08-28T08:39:47.565Z,20.73
2022-08-28T08:42:24.768Z,20.90
2022-08-28T08:44:55.662Z,20.54
2022-08-28T08:47:34.509Z,20.65
2022-08-28T08:50:07.020Z,20.75
2022-08-28T08:52:53.588Z,21.05
2022-08-28T08:55:27.711Z,20.93
2022-08-28T08:58:08.063Z,21.05
2022-08-28T09:00:44.675Z,20.78
2022-08-28T09:03:17.235Z,21.02
2022-08-28T09:05:50.434Z,21.44
2022-08-28T09:08:32.793Z,21.93
2022-08-28T09:11:04.654Z,22.07
2022-08-28T09:13:48.010Z,22.03
2022-08-28T09:16:26.055Z,22.07
2022-08-28T09:18:57.259Z,21.92
2022-08-28T09:21:29.395Z,21.87
2022-08-28T09:24:05.917Z,22.27
2022-08-28T09:26:42.455Z,22.61
2022-08-28T09:29:19.884Z,22.22
2022-08-28T09:31:48.199Z,22.59
2022-08-28T09:34:29.560Z,22.60
2022-08-28T09:37:00.211Z,22.62
2022-08-28T09:39:30.766Z,22.39
2022-08-28T09:42:23.237Z,22.64
2022-08-28T09:44:58.026Z,23.03
2022-08-28T09:47:59.648Z,22.47
2022-08-28T09:50:37.998Z,22.93
2022-08-28T09:53:20.842Z,22.86
2022-08-28T09:56:01.795Z,23.10
2022-08-28T09:58:35.570Z,23.32
2022-08-28T10:01:13.336Z,23.32
2022-08-28T10:03:52.933Z,22.66
2022-08-28T10:06:27.495Z,23.11
2022-08-28T10:09:09.470Z,23.48
2022-08-28T10:11:46.037Z,23.47
2022-08-28T10:14:28.505Z,23.81
2022-08-28T10:17:10.725Z,23.75
2022-08-28T10:19:48.204Z,22.85
2022-08-28T10:22:30.506Z,23.71
2022-08-28T10:25:14.224Z,23.90
2022-08-28T10:27:55.731Z,24.31
2022-08-28T10:30:26.665Z,23.69
2022-08-28T10:33:13.506Z,24.10
2022-08-28T10:35:51.019Z,24.50
2022-08-28T10:38:25.612Z,24.78
2022-08-28T10:41:00.937Z,24.86
2022-08-28T10:43:36.642Z,25.44
2022-08-28T10:46:08.063Z,25.10
2022-08-28T10:48:44.289Z,24.67
2022-08-28T10:51:19.004Z,25.11
2022-08-28T10:54:07.730Z,24.73
2022-08-28T10:56:41.712Z,25.53
2022-08-28T10:59:09.858Z,25.60
2022-08-28T11:01:43.301Z,25.99
2022-08-28T11:04:25.484Z,26.35
2022-08-28T11:06:56.569Z,26.19
2022-08-28T11:09:33.337Z,26.44
2022-08-28T11:12:03.649Z,26.46
2022-08-28T11:14:42.774Z,26.53
2022-08-28T11:17:42.073Z,26.12
2022-08-28T11:20:17.260Z,26.19
2022-08-28T11:22:50.386Z,26.43
2022-08-28T11:25:26.613Z,26.34
2022-08-28T11:28:17.884Z,27.53
2022-08-28T11:30:48.824Z,27.73
2022-08-28T11:33:39.645Z,26.75
2022-08-28T11:36:14.515Z,26.84
2022-08-28T11:39:07.592Z,27.42
2022-08-28T11:41:39.142Z,27.46
2022-08-28T11:44:28.560Z,27.68
2022-08-28T11:47:17.584Z,27.14
2022-08-28T11:49:46.823Z,28.00
2022-08-28T11:52:38.517Z,27.82
2022-08-28T11:55:23.047Z,27.93
2022-08-28T12:00:52.835Z,28.21
2022-08-28T12:03:32.626Z,27.58
2022-08-28T12:06:02.073Z,28.56
2022-08-28T12:09:12.063Z,28.11
2022-08-28T12:11:56.499Z,27.78
2022-08-28T12:15:07.919Z,27.85
2022-08-28T12:17:54.272Z,28.64
2022-08-28T12:20:42.699Z,27.84
2022-08-28T12:23:34.900Z,28.22
2022-08-28T12:26:05.960Z,28.59
2022-08-28T12:28:45.056Z,28.34
2022-08-28T12:31:55.358Z,28.60
2022-08-28T12:34:35.655Z,28.54
2022-08-28T12:37:06.936Z,28.42
2022-08-28T12:39:35.399Z,28.72
2022-08-28T12:42:04.166Z,28.18
2022-08-28T12:44:34.844Z,28.42
2022-08-28T12:47:03.132Z,28.04
2022-08-28T12:49:35.748Z,28.45
2022-08-28T12:52:17.286Z,28.48
2022-08-28T12:54:47.176Z,28.38
2022-08-28T12:57:18.011Z,28.80
2022-08-28T12:59:49.478Z,28.45
2022-08-28T13:02:27.141Z,28.58
2022-08-28T13:04:59.659Z,28.56
2022-08-28T13:07:31.755Z,28.51
2022-08-28T13:10:03.724Z,28.76
2022-08-28T13:12:55.382Z,28.85
2022-08-28T13:16:01.663Z,28.60
2022-08-28T13:19:11.934Z,27.82
2022-08-28T13:21:58.598Z,27.95
2022-08-28T13:24:37.790Z,29.06
2022-08-28T13:27:10.391Z,30.29
2022-08-28T13:29:40.691Z,29.61
2022-08-28T13:32:26.325Z,29.06
2022-08-28T13:35:10.311Z,29.46
2022-08-28T13:37:44.549Z,29.32
2022-08-28T13:40:36.907Z,30.02
2022-08-28T13:43:10.179Z,30.17
2022-08-28T13:45:43.624Z,31.24
2022-08-28T13:48:17.081Z,30.98
2022-08-28T13:50:47.758Z,30.89
2022-08-28T13:53:18.843Z,31.10
2022-08-28T13:55:53.787Z,30.07
2022-08-28T13:58:23.583Z,31.06
2022-08-28T14:00:54.044Z,31.28
2022-08-28T14:03:38.637Z,31.67
2022-08-28T14:06:11.425Z,31.63
2022-08-28T14:08:40.008Z,31.52
2022-08-28T14:11:12.846Z,30.59
2022-08-28T14:13:46.965Z,30.52
2022-08-28T14:16:24.749Z,31.04
2022-08-28T14:19:07.131Z,31.30
2022-08-28T14:21:37.559Z,31.78
2022-08-28T14:24:07.265Z,31.54
2022-08-28T14:26:35.892Z,31.18
2022-08-28T14:29:06.427Z,30.41
2022-08-28T14:31:37.236Z,30.17
2022-08-28T14:34:07.907Z,31.09
2022-08-28T14:36:38.175Z,31.25
2022-08-28T14:39:09.576Z,32.21
2022-08-28T14:41:38.321Z,31.37
2022-08-28T14:44:06.825Z,31.68
2022-08-28T14:46:38.091Z,32.17
2022-08-28T14:49:10.492Z,32.43
2022-08-28T14:51:41.348Z,32.87
2022-08-28T14:54:11.251Z,33.05
2022-08-28T14:56:39.872Z,33.34
2022-08-28T14:59:23.868Z,32.90
2022-08-28T15:01:55.461Z,33.14
2022-08-28T15:04:34.554Z,32.68
2022-08-28T15:07:06.553Z,32.58
2022-08-28T15:09:43.061Z,32.23
2022-08-28T15:12:11.936Z,32.01
2022-08-28T15:14:40.362Z,32.69
2022-08-28T15:17:12.772Z,33.23
2022-08-28T15:19:42.698Z,32.87
2022-08-28T15:22:11.268Z,33.60
2022-08-28T15:24:39.652Z,33.94
2022-08-28T15:27:08.022Z,33.26
2022-08-28T15:29:40.008Z,33.69
2022-08-28T15:32:08.480Z,33.41
2022-08-28T15:34:36.826Z,32.53
2022-08-28T15:37:07.705Z,32.42
2022-08-28T15:39:53.216Z,32.78
2022-08-28T15:42:21.674Z,33.31
2022-08-28T15:44:50.069Z,33.95
2022-08-28T15:47:18.547Z,33.92
2022-08-28T15:49:52.019Z,33.64
2022-08-28T15:52:24.691Z,34.50
2022-08-28T15:54:53.122Z,34.04
2022-08-28T15:57:26.259Z,33.73
2022-08-28T15:59:56.151Z,32.88
2022-08-28T16:02:27.734Z,33.50
2022-08-28T16:04:55.955Z,33.03
2022-08-28T16:07:26.988Z,33.96
2022-08-28T16:09:57.109Z,34.47
2022-08-28T16:12:25.789Z,34.29
2022-08-28T16:14:54.202Z,34.68
2022-08-28T16:17:24.251Z,34.59
2022-08-28T16:19:55.084Z,33.42
2022-08-28T16:22:27.615Z,33.78
2022-08-28T16:24:58.315Z,34.59
2022-08-28T16:27:26.956Z,35.05
2022-08-28T16:29:55.709Z,34.64
2022-08-28T16:32:25.555Z,32.45
2022-08-28T16:34:54.604Z,32.89
2022-08-28T16:37:22.861Z,33.17
2022-08-28T16:39:57.287Z,34.03
2022-08-28T16:42:32.815Z,34.53
2022-08-28T16:45:02.556Z,34.19
2022-08-28T16:47:37.249Z,34.29
2022-08-28T16:50:08.594Z,34.62
2022-08-28T16:52:38.045Z,33.65
2022-08-28T16:55:11.032Z,34.33
2022-08-28T16:57:39.938Z,34.99
2022-08-28T17:00:13.542Z,33.77
2022-08-28T17:02:42.476Z,33.50
2022-08-28T17:05:12.892Z,33.89
2022-08-28T17:07:41.570Z,34.52
2022-08-28T17:10:15.123Z,34.49
2022-08-28T17:12:43.949Z,33.31
2022-08-28T17:15:13.353Z,33.65
2022-08-28T17:17:42.277Z,33.55
2022-08-28T17:20:34.085Z,33.44
2022-08-28T17:23:01.854Z,32.94
2022-08-28T17:25:32.001Z,32.73
2022-08-28T17:28:00.376Z,32.28
2022-08-28T17:30:28.965Z,32.38
2022-08-28T17:32:57.271Z,32.02
2022-08-28T17:35:25.881Z,31.54
2022-08-28T17:37:55.847Z,31.36
2022-08-28T17:40:25.069Z,30.77
2022-08-28T17:42:55.311Z,30.24
2022-08-28T17:45:23.854Z,30.47
2022-08-28T17:47:55.052Z,30.04
2022-08-28T17:50:24.675Z,30.28
2022-08-28T17:52:53.802Z,30.12
2022-08-28T17:55:23.534Z,30.13
2022-08-28T17:57:52.175Z,29.99
2022-08-28T18:00:22.525Z,29.17
2022-08-28T18:02:51.990Z,28.91
2022-08-28T18:05:20.394Z,28.51
2022-08-28T18:07:51.334Z,28.37
2022-08-28T18:10:21.843Z,27.81
2022-08-28T18:12:50.427Z,27.22
2022-08-28T18:15:20.534Z,26.99
2022-08-28T18:17:50.916Z,26.63
2022-08-28T18:20:20.720Z,26.74
2022-08-28T18:22:50.215Z,26.99
2022-08-28T18:25:34.416Z,26.61
2022-08-28T18:28:06.120Z,26.50
2022-08-28T18:30:35.456Z,26.48
2022-08-28T18:33:13.415Z,26.42
2022-08-28T18:35:46.248Z,26.25
2022-08-28T18:38:18.826Z,26.16
2022-08-28T18:40:49.357Z,26.05
2022-08-28T18:43:20.417Z,26.09
2022-08-28T18:45:49.416Z,25.81
2022-08-28T18:48:20.809Z,25.56
2022-08-28T18:50:50.712Z,25.60
2022-08-28T18:53:21.686Z,25.35
2022-08-28T18:55:53.916Z,25.52
2022-08-28T18:58:22.988Z,25.34
2022-08-28T19:00:51.789Z,25.27
2022-08-28T19:03:22.049Z,25.03
2022-08-28T19:05:51.232Z,24.76
2022-08-28T19:08:21.180Z,24.83
2022-08-28T19:10:49.708Z,24.61
2022-08-28T19:13:18.302Z,24.37
2022-08-28T19:15:52.723Z,24.21
2022-08-28T19:18:23.220Z,23.81
2022-08-28T19:20:53.053Z,24.06
2022-08-28T19:23:21.540Z,24.05
2022-08-28T19:25:52.267Z,23.88
2022-08-28T19:28:20.988Z,23.76
2022-08-28T19:30:49.398Z,23.43
2022-08-28T19:33:18.796Z,23.57
2022-08-28T19:35:48.965Z,23.54
2022-08-28T19:38:18.335Z,23.25
2022-08-28T19:40:47.025Z,23.17
2022-08-28T19:43:16.657Z,23.11
2022-08-28T19:45:46.538Z,23.20
2022-08-28T19:48:16.328Z,23.17
2022-08-28T19:50:45.067Z,22.87
2022-08-28T19:53:17.133Z,22.97
2022-08-28T19:55:45.664Z,23.03
2022-08-28T19:58:14.605Z,23.10
2022-08-28T20:00:44.500Z,23.10
2022-08-28T20:03:12.880Z,22.96
2022-08-28T20:05:42.416Z,23.04
2022-08-28T20:08:10.545Z,23.02
2022-08-28T20:10:42.222Z,22.91
2022-08-28T20:13:11.388Z,22.83
2022-08-28T20:15:42.960Z,22.80
2022-08-28T20:18:11.426Z,22.76
2022-08-28T20:20:40.815Z,22.78
2022-08-28T20:23:09.039Z,22.76
2022-08-28T20:25:37.721Z,22.51
2022-08-28T20:28:09.007Z,22.60
2022-08-28T20:30:40.732Z,22.50
2022-08-28T20:33:09.277Z,22.48
2022-08-28T20:35:37.974Z,22.32
2022-08-28T20:38:07.205Z,21.99
2022-08-28T20:40:35.770Z,22.11
2022-08-28T20:43:04.784Z,22.15
2022-08-28T20:48:04.439Z,22.10
2022-08-28T20:50:33.099Z,21.91
2022-08-28T20:53:06.868Z,21.88
2022-08-28T20:55:36.870Z,21.97
2022-08-28T20:58:06.537Z,22.08
2022-08-28T21:00:36.828Z,21.85
2022-08-28T21:03:05.556Z,21.59
2022-08-28T21:05:34.185Z,21.54
2022-08-28T21:08:03.097Z,21.56
2022-08-28T21:10:31.380Z,21.50
2022-08-28T21:12:59.698Z,21.57
2022-08-28T21:15:28.700Z,21.45
2022-08-28T21:17:58.916Z,21.47
2022-08-28T21:20:28.507Z,21.36
2022-08-28T21:22:58.295Z,21.32
2022-08-28T21:25:28.077Z,20.97
2022-08-28T21:27:56.551Z,20.78
2022-08-28T21:30:25.373Z,20.89
2022-08-28T21:33:00.040Z,20.62
2022-08-28T21:35:29.288Z,20.59
2022-08-28T21:37:57.984Z,20.29
2022-08-28T21:40:26.688Z,20.49
2022-08-28T21:42:55.211Z,20.35
2022-08-28T21:45:23.794Z,19.99
2022-08-28T21:47:52.207Z,20.42
2022-08-28T21:50:24.679Z,20.48
2022-08-28T21:52:53.223Z,20.59
2022-08-28T21:55:22.240Z,20.64
2022-08-28T21:57:51.621Z,20.51
2022-08-28T22:00:23.052Z,20.60
2022-08-28T22:02:52.954Z,20.38
2022-08-28T22:05:24.520Z,20.20
2022-08-28T22:07:53.073Z,20.20
2022-08-28T22:10:21.208Z,20.09
2022-08-28T22:12:49.479Z,20.09
2022-08-28T22:15:18.036Z,20.13
2022-08-28T22:17:46.697Z,19.95
2022-08-28T22:20:14.994Z,20.12
2022-08-28T22:23:02.015Z,20.01
2022-08-28T22:25:32.010Z,19.87
2022-08-28T22:28:10.392Z,19.80
2022-08-28T22:30:39.736Z,19.57
2022-08-28T22:33:10.899Z,19.56
2022-08-28T22:35:39.581Z,19.56
2022-08-28T22:38:11.266Z,19.48
2022-08-28T22:40:39.798Z,19.29
2022-08-28T22:43:08.383Z,19.36
2022-08-28T22:45:36.788Z,19.28
2022-08-28T22:48:06.076Z,19.38
2022-08-28T22:50:34.537Z,19.37
2022-08-28T22:53:03.126Z,19.15
2022-08-28T22:55:33.879Z,19.22
2022-08-28T22:58:04.638Z,19.31
2022-08-28T23:00:36.399Z,19.11
2022-08-28T23:03:05.924Z,19.12
2022-08-28T23:05:34.867Z,18.90
2022-08-28T23:08:03.061Z,18.84
2022-08-28T23:10:57.454Z,18.91
2022-08-28T23:13:22.443Z,18.90
2022-08-28T23:15:51.394Z,18.57
2022-08-28T23:18:19.538Z,18.58
2022-08-28T23:20:47.985Z,18.34
2022-08-28T23:23:19.418Z,18.21
2022-08-28T23:25:50.385Z,18.05
2022-08-28T23:28:19.259Z,18.28
2022-08-28T23:30:49.679Z,18.01
2022-08-28T23:33:23.257Z,18.12
2022-08-28T23:35:52.557Z,17.95
2022-08-28T23:38:21.135Z,17.95
2022-08-28T23:40:51.366Z,17.78
2022-08-28T23:43:19.975Z,17.70
2022-08-28T23:45:48.871Z,17.85
2022-08-28T23:48:17.343Z,18.06
2022-08-28T23:50:45.746Z,18.02
2022-08-28T23:53:13.991Z,18.01
2022-08-28T23:55:45.344Z,18.25
2022-08-28T23:58:15.649Z,17.94
